Time;durP1;ratioP1;P1;durP2;ratioP2;P2;SDS_P1;SDS_P2;PMS_P1;PMS_P2;Temp;Humidity;BMP_temperature;BMP_pressure;BME280_temperature;BME280_humidity;BME280_pressure;Samples;Min_cycle;Max_cycle;Signal;HPM_P1;HPM_P2
2023/12/30 00:01:12;;;;;;;;;5.00;4.00;;;;;12.76;85.26;101216.47;5062752;28;45437;-64
2023/12/30 00:03:37;;;;;;;;;4.00;3.00;;;;;12.72;85.20;101206.78;5061248;28;53374;-64
2023/12/30 00:06:03;;;;;;;;;4.25;3.00;;;;;12.71;85.07;101197.00;5080412;28;45394;-64
2023/12/30 00:08:29;;;;;;;;;5.00;3.00;;;;;12.77;85.19;101212.88;5080679;28;45553;-64
2023/12/30 00:10:54;;;;;;;;;2.75;2.00;;;;;12.72;85.01;101204.13;5079854;27;45336;-64
2023/12/30 00:13:19;;;;;;;;;4.50;4.00;;;;;12.63;85.43;101197.28;5080035;28;57925;-64
2023/12/30 00:15:44;;;;;;;;;2.00;2.00;;;;;12.73;85.31;101206.75;5080441;28;48170;-64
2023/12/30 00:18:10;;;;;;;;;5.00;3.75;;;;;12.69;85.36;101204.22;5080021;28;47664;-64
2023/12/30 00:20:35;;;;;;;;;1.00;0.00;;;;;12.63;85.22;101196.38;5080459;28;45309;-64
2023/12/30 00:23:00;;;;;;;;;3.00;2.75;;;;;12.68;85.05;101215.84;5065424;28;68368;-64
2023/12/30 00:25:26;;;;;;;;;3.75;2.00;;;;;12.68;85.13;101213.16;5080024;28;55624;-64
2023/12/30 00:27:51;;;;;;;;;4.00;2.25;;;;;12.63;84.96;101209.78;5060976;28;45399;-64
2023/12/30 00:30:17;;;;;;;;;4.50;3.00;;;;;12.66;85.19;101223.06;5080479;28;45304;-64
2023/12/30 00:32:42;;;;;;;;;5.00;3.75;;;;;12.63;85.12;101209.78;5080137;28;45501;-64
2023/12/30 00:35:08;;;;;;;;;9.00;3.00;;;;;12.61;85.22;101212.50;5080067;28;46127;-64
2023/12/30 00:37:34;;;;;;;;;2.00;2.00;;;;;12.58;85.14;101204.59;5079974;28;45272;-64
2023/12/30 00:39:59;;;;;;;;;2.75;2.00;;;;;12.60;84.99;101200.06;5080207;28;45397;-64
2023/12/30 00:42:25;;;;;;;;;2.75;2.00;;;;;12.40;84.99;101168.59;5079568;28;45549;-64
2023/12/30 00:44:50;;;;;;;;;3.75;3.50;;;;;12.56;85.10;101201.97;5080088;28;45401;-64
2023/12/30 00:47:17;;;;;;;;;4.75;4.00;;;;;12.51;85.37;101195.88;5079286;28;62410;-64
2023/12/30 00:49:42;;;;;;;;;10.75;6.50;;;;;12.60;85.07;101218.81;5080337;28;45406;-64
2023/12/30 00:52:08;;;;;;;;;5.75;4.00;;;;;12.56;85.21;101217.13;5079923;28;45561;-64
2023/12/30 00:54:33;;;;;;;;;5.00;3.00;;;;;12.46;85.13;101197.81;5079667;28;55031;-64
2023/12/30 00:56:58;;;;;;;;;5.75;4.00;;;;;12.56;85.23;101207.31;5079796;28;45380;-64
2023/12/30 00:59:24;;;;;;;;;6.00;4.75;;;;;12.56;85.31;101214.44;5056977;28;45742;-64
2023/12/30 01:01:49;;;;;;;;;2.25;2.00;;;;;12.54;85.31;101209.16;5079642;28;45460;-64
2023/12/30 01:04:14;;;;;;;;;3.75;3.00;;;;;12.48;85.43;101209.38;5079468;28;46044;-64
2023/12/30 01:06:39;;;;;;;;;5.75;3.75;;;;;12.46;85.29;101208.53;5079695;28;45444;-64
2023/12/30 01:09:05;;;;;;;;;3.25;3.25;;;;;12.41;85.21;101197.09;5079971;28;45451;-64
2023/12/30 01:11:30;;;;;;;;;5.00;3.00;;;;;12.48;85.13;101212.06;5078163;28;62440;-64
2023/12/30 01:13:55;;;;;;;;;5.00;4.75;;;;;12.51;85.05;101214.63;5061177;28;47346;-64
2023/12/30 01:16:21;;;;;;;;;5.00;2.75;;;;;12.39;85.24;101204.31;5079638;28;45550;-64
2023/12/30 01:18:46;;;;;;;;;3.00;3.00;;;;;12.48;85.09;101222.75;5079332;28;45483;-64
2023/12/30 01:21:11;;;;;;;;;4.50;4.00;;;;;12.50;85.08;101230.75;5079401;28;45454;-64
2023/12/30 01:23:37;;;;;;;;;3.50;2.50;;;;;12.39;85.02;101213.19;5079145;28;45391;-64
2023/12/30 01:26:02;;;;;;;;;3.00;2.00;;;;;12.41;85.24;101216.72;5079497;28;45245;-64
2023/12/30 01:28:28;;;;;;;;;6.75;3.50;;;;;12.47;84.90;101230.84;5078134;28;46034;-64
2023/12/30 01:30:53;;;;;;;;;3.75;2.00;;;;;12.47;84.98;101221.00;5079504;28;45374;-64
2023/12/30 01:33:18;;;;;;;;;2.50;2.25;;;;;12.37;85.01;101212.38;5079108;28;47141;-64
2023/12/30 01:35:44;;;;;;;;;3.75;3.00;;;;;12.45;85.10;101233.56;5060933;28;45312;-64
2023/12/30 01:38:09;;;;;;;;;5.25;2.00;;;;;12.41;85.02;101219.41;5060899;28;47034;-64
2023/12/30 01:40:34;;;;;;;;;2.50;2.50;;;;;12.37;84.79;101206.16;5079230;28;45295;-64
2023/12/30 01:43:04;;;;;;;;;2.00;2.00;;;;;12.40;84.66;101223.00;5060716;28;48361;-64
2023/12/30 01:45:29;;;;;;;;;5.75;3.25;;;;;12.38;84.70;101224.00;5079230;28;45500;-64
2023/12/30 01:47:55;;;;;;;;;1.50;1.50;;;;;12.36;84.88;101220.47;5079115;28;45458;-64
2023/12/30 01:50:21;;;;;;;;;3.50;2.00;;;;;12.38;84.80;101229.34;5060883;28;45650;-64
2023/12/30 01:52:47;;;;;;;;;1.00;1.00;;;;;12.39;84.82;101228.41;5077867;28;45412;-64
2023/12/30 01:55:14;;;;;;;;;3.00;2.00;;;;;12.37;84.82;101232.94;5079129;28;45407;-64
2023/12/30 01:57:39;;;;;;;;;1.75;1.75;;;;;12.31;84.63;101219.72;5075117;28;45315;-64
2023/12/30 02:00:05;;;;;;;;;2.25;2.00;;;;;12.23;84.66;101210.16;5076895;28;45831;-64
2023/12/30 02:02:31;;;;;;;;;3.00;2.75;;;;;12.37;84.70;101232.94;5078644;28;45282;-64
2023/12/30 02:04:56;;;;;;;;;3.00;1.25;;;;;12.30;84.46;101228.72;5078935;28;45394;-64
2023/12/30 02:07:22;;;;;;;;;4.00;2.00;;;;;12.29;84.31;101233.16;5079060;28;45509;-64
2023/12/30 02:09:47;;;;;;;;;2.00;1.25;;;;;12.26;84.35;101229.72;5060559;28;45336;-64
2023/12/30 02:12:12;;;;;;;;;3.00;3.00;;;;;12.27;84.42;101236.84;5077927;28;45491;-64
2023/12/30 02:14:38;;;;;;;;;4.25;2.50;;;;;12.19;84.33;101227.22;5078883;28;45400;-64
2023/12/30 02:17:03;;;;;;;;;2.00;1.00;;;;;12.21;84.24;101240.56;5078491;28;47602;-64
2023/12/30 02:19:28;;;;;;;;;4.25;2.00;;;;;12.26;84.25;101253.81;5078640;28;45419;-64
2023/12/30 02:21:54;;;;;;;;;4.25;1.00;;;;;12.17;84.36;101247.81;5078200;28;46163;-64
2023/12/30 02:24:20;;;;;;;;;1.50;1.00;;;;;12.28;84.32;101274.25;5078939;28;45377;-64
2023/12/30 02:26:46;;;;;;;;;3.00;1.00;;;;;12.18;84.26;101257.59;5077480;28;45893;-64
2023/12/30 02:29:11;;;;;;;;;5.25;4.00;;;;;12.21;84.10;101268.22;5077458;28;45466;-64
2023/12/30 02:31:45;;;;;;;;;2.50;1.75;;;;;12.22;84.30;101275.31;5079348;27;45474;-64
2023/12/30 02:34:18;;;;;;;;;3.00;3.00;;;;;12.13;84.29;101254.19;5085618;27;45818;-63
2023/12/30 02:36:45;;;;;;;;;5.00;3.00;;;;;12.19;84.15;101272.72;5066205;28;45474;-64
2023/12/30 02:39:10;;;;;;;;;4.00;2.25;;;;;12.19;84.25;101280.75;5078512;28;45401;-64
2023/12/30 02:41:36;;;;;;;;;4.00;1.75;;;;;12.08;83.92;101258.81;5078154;28;45399;-64
2023/12/30 02:44:02;;;;;;;;;3.25;3.25;;;;;12.14;84.23;101272.00;5078216;28;45433;-64
2023/12/30 02:46:27;;;;;;;;;5.25;3.25;;;;;12.13;84.23;101274.72;5078677;28;45350;-64
2023/12/30 02:48:53;;;;;;;;;4.25;4.25;;;;;12.04;84.38;101260.72;5077777;28;59072;-64
2023/12/30 02:51:19;;;;;;;;;4.25;3.00;;;;;12.05;84.58;101264.25;5078404;28;45974;-64
2023/12/30 02:53:44;;;;;;;;;4.50;4.50;;;;;12.06;84.63;101266.00;5078408;28;45743;-64
2023/12/30 02:56:23;;;;;;;;;5.00;4.00;;;;;12.11;84.54;101268.53;5056750;28;45727;-64
2023/12/30 02:58:59;;;;;;;;;6.00;3.00;;;;;12.09;84.49;101262.34;5078304;28;45537;-64
2023/12/30 03:01:27;;;;;;;;;3.25;3.25;;;;;11.98;84.25;101242.16;5060135;28;45459;-64
2023/12/30 03:03:54;;;;;;;;;4.00;3.00;;;;;12.12;84.51;101265.81;5076938;28;45382;-64
2023/12/30 03:06:21;;;;;;;;;6.75;3.75;;;;;12.12;84.38;101271.16;5081809;28;45267;-64
2023/12/30 03:08:46;;;;;;;;;4.00;2.00;;;;;12.05;84.51;101256.22;5081520;28;45422;-64
2023/12/30 03:11:11;;;;;;;;;3.75;2.25;;;;;12.09;84.45;101263.22;5080888;28;45400;-64
2023/12/30 03:13:37;;;;;;;;;0.00;0.00;;;;;12.04;84.12;101268.75;5077108;28;45580;-64
2023/12/30 03:16:06;;;;;;;;;4.25;2.75;;;;;11.95;84.53;101246.72;5079399;28;45325;-64
2023/12/30 03:18:32;;;;;;;;;2.50;2.50;;;;;12.03;84.73;101261.63;5081259;28;46379;-64
2023/12/30 03:20:57;;;;;;;;;3.75;2.50;;;;;11.96;84.32;101246.69;5062873;28;48205;-64
2023/12/30 03:23:23;;;;;;;;;3.00;2.75;;;;;12.05;84.46;101265.13;5062809;28;45386;-64
2023/12/30 03:25:48;;;;;;;;;2.00;2.00;;;;;11.95;84.38;101263.66;5080810;28;45730;-64
2023/12/30 03:28:13;;;;;;;;;5.00;3.00;;;;;12.04;84.46;101275.88;5080861;28;49977;-64
2023/12/30 03:30:39;;;;;;;;;4.75;2.00;;;;;11.94;84.20;101263.69;5081402;28;45350;-64
2023/12/30 03:33:04;;;;;;;;;4.50;3.00;;;;;11.95;84.48;101269.00;5080928;27;45331;-64
2023/12/30 03:35:32;;;;;;;;;3.00;2.00;;;;;11.96;84.36;101267.19;5081357;28;45318;-64
2023/12/30 03:37:57;;;;;;;;;2.00;2.00;;;;;11.92;84.70;101266.41;5081166;28;45630;-64
2023/12/30 03:40:22;;;;;;;;;3.50;2.75;;;;;11.93;84.54;101273.53;5081193;28;45338;-64
2023/12/30 03:42:47;;;;;;;;;2.00;2.00;;;;;11.90;84.69;101272.72;5080818;28;45311;-64
2023/12/30 03:45:13;;;;;;;;;1.50;1.25;;;;;11.81;84.52;101258.69;5059069;28;51289;-64
2023/12/30 03:47:38;;;;;;;;;3.00;3.00;;;;;11.81;84.66;101256.00;5059662;28;45530;-64
2023/12/30 03:50:04;;;;;;;;;2.25;2.25;;;;;11.78;84.50;101263.25;5062444;28;50295;-63
2023/12/30 03:52:30;;;;;;;;;3.50;1.75;;;;;11.80;84.69;101267.63;5080871;28;45531;-64
2023/12/30 03:54:55;;;;;;;;;3.00;3.00;;;;;11.81;85.02;101269.38;5080131;27;49561;-64
2023/12/30 03:57:21;;;;;;;;;3.00;2.00;;;;;11.86;84.99;101274.56;5080730;28;45676;-64
2023/12/30 03:59:47;;;;;;;;;4.00;2.00;;;;;11.76;84.93;101254.38;5080747;28;45370;-64
2023/12/30 04:02:12;;;;;;;;;3.75;3.00;;;;;11.80;84.63;101256.91;5080575;28;45359;-64
2023/12/30 04:04:40;;;;;;;;;3.00;2.00;;;;;11.78;84.71;101257.91;5062681;28;45573;-64
2023/12/30 04:07:05;;;;;;;;;3.00;1.75;;;;;11.80;84.86;101264.06;5080686;28;45295;-63
2023/12/30 04:09:30;;;;;;;;;1.25;1.25;;;;;11.75;85.02;101258.84;5080493;28;46966;-64
2023/12/30 04:11:55;;;;;;;;;3.00;2.00;;;;;11.82;84.77;101267.56;5079121;28;63379;-64
2023/12/30 04:14:21;;;;;;;;;2.50;1.50;;;;;11.83;84.53;101266.66;5078097;27;55683;-64
2023/12/30 04:16:46;;;;;;;;;3.00;2.00;;;;;11.77;84.83;101259.69;5078918;28;63317;-63
2023/12/30 04:19:11;;;;;;;;;2.00;1.00;;;;;11.75;84.70;101258.00;5080201;28;45445;-64
2023/12/30 04:21:37;;;;;;;;;3.75;3.00;;;;;11.74;84.46;101251.75;5080146;28;45471;-64
2023/12/30 04:24:02;;;;;;;;;5.75;3.00;;;;;11.81;84.67;101264.03;5077227;28;45407;-64
2023/12/30 04:26:27;;;;;;;;;9.25;2.50;;;;;11.80;84.59;101258.72;5061997;28;45244;-64
2023/12/30 04:28:53;;;;;;;;;3.00;2.00;;;;;11.81;84.50;101258.69;5080431;28;46440;-64
2023/12/30 04:31:18;;;;;;;;;2.25;2.25;;;;;11.72;84.60;101242.03;5079934;28;50262;-64
2023/12/30 04:33:43;;;;;;;;;3.00;2.75;;;;;11.78;84.68;101249.88;5080587;28;45389;-64
2023/12/30 04:36:09;;;;;;;;;2.00;2.00;;;;;11.80;84.68;101250.69;5079298;28;62334;-64
2023/12/30 04:38:34;;;;;;;;;4.00;1.75;;;;;11.79;84.70;101254.28;5062051;28;46227;-64
2023/12/30 04:40:59;;;;;;;;;2.25;1.00;;;;;11.73;84.65;101243.75;5079060;28;61569;-64
2023/12/30 04:43:24;;;;;;;;;5.50;3.25;;;;;11.78;84.43;101258.78;5080350;28;45427;-64
2023/12/30 04:45:50;;;;;;;;;2.50;2.50;;;;;11.73;84.45;101257.13;5078379;28;52114;-64
2023/12/30 04:48:15;;;;;;;;;2.00;2.00;;;;;11.68;84.42;101254.63;5061851;28;48343;-63
2023/12/30 04:50:40;;;;;;;;;2.25;2.00;;;;;11.70;84.46;101266.13;5079796;28;45370;-64
2023/12/30 04:53:06;;;;;;;;;5.50;3.00;;;;;11.61;84.18;101253.00;5061553;28;53634;-64
2023/12/30 04:55:31;;;;;;;;;2.50;2.00;;;;;11.69;84.31;101264.38;5079730;28;45409;-64
2023/12/30 04:57:57;;;;;;;;;3.00;2.00;;;;;11.65;84.07;101252.03;5060964;28;64831;-64
2023/12/30 05:00:22;;;;;;;;;5.50;3.00;;;;;11.61;84.24;101245.88;5079756;28;45477;-63
2023/12/30 05:02:47;;;;;;;;;2.25;2.25;;;;;11.67;84.07;101258.19;5079944;28;45387;-64
2023/12/30 05:05:13;;;;;;;;;2.75;2.00;;;;;11.65;84.21;101260.91;5079214;28;54154;-64
2023/12/30 05:07:38;;;;;;;;;3.75;3.25;;;;;11.68;84.28;101259.97;5079466;28;54776;-64
2023/12/30 05:10:04;;;;;;;;;3.75;3.75;;;;;11.54;83.97;101236.25;5078924;28;46505;-64
2023/12/30 05:12:29;;;;;;;;;2.00;1.25;;;;;11.56;84.14;101245.16;5045421;28;45493;-64
2023/12/30 05:14:54;;;;;;;;;6.00;4.00;;;;;11.64;84.30;101260.94;5070295;28;46803;-64
2023/12/30 05:17:20;;;;;;;;;4.25;4.00;;;;;11.49;84.22;101231.06;5079557;28;45411;-63
2023/12/30 05:19:45;;;;;;;;;5.75;4.50;;;;;11.58;84.33;101247.78;5079184;28;45371;-64
2023/12/30 05:22:10;;;;;;;;;3.75;3.75;;;;;11.59;84.50;101252.19;5078850;28;58183;-64
2023/12/30 05:24:36;;;;;;;;;4.00;3.75;;;;;11.48;84.29;101234.66;5078255;28;45878;-64
2023/12/30 05:27:01;;;;;;;;;4.00;3.25;;;;;11.58;84.41;101251.31;5060915;28;48182;-64
2023/12/30 05:29:28;;;;;;;;;3.25;3.25;;;;;11.50;84.02;101237.28;5079558;28;45513;-64
2023/12/30 05:31:53;;;;;;;;;3.75;3.00;;;;;11.57;84.60;101243.34;5079015;28;45548;-64
2023/12/30 05:34:18;;;;;;;;;3.50;2.50;;;;;11.50;84.54;101231.94;5079146;28;45320;-64
2023/12/30 05:36:44;;;;;;;;;1.75;1.50;;;;;11.29;84.45;101196.00;5061187;28;46932;-64
2023/12/30 05:39:09;;;;;;;;;3.25;2.00;;;;;11.49;84.38;101225.72;5057093;28;49411;-64
2023/12/30 05:41:34;;;;;;;;;4.00;2.25;;;;;11.47;84.72;101226.69;5059749;28;45461;-64
2023/12/30 05:44:00;;;;;;;;;2.00;2.00;;;;;11.47;84.58;101230.22;5078810;28;50511;-63
2023/12/30 05:46:26;;;;;;;;;2.00;2.00;;;;;11.51;84.77;101236.38;5078721;28;57830;-64
2023/12/30 05:48:52;;;;;;;;;3.00;3.00;;;;;11.43;84.46;101223.22;5078905;28;45627;-64
2023/12/30 05:51:17;;;;;;;;;2.00;2.00;;;;;11.44;84.63;101219.63;5079453;28;45378;-64
2023/12/30 05:53:42;;;;;;;;;6.75;3.00;;;;;11.45;84.60;101231.19;5079081;28;45484;-63
2023/12/30 05:56:08;;;;;;;;;3.00;2.00;;;;;11.41;85.07;101226.84;5060553;28;52299;-63
2023/12/30 05:58:34;;;;;;;;;4.00;3.00;;;;;11.40;84.82;101217.94;5079030;28;45415;-63
2023/12/30 06:01:01;;;;;;;;;2.00;2.00;;;;;11.49;84.70;101225.72;5079217;28;45508;-64
2023/12/30 06:03:26;;;;;;;;;2.75;2.75;;;;;11.45;84.58;101221.38;5079017;28;45388;-64
2023/12/30 06:05:51;;;;;;;;;4.00;2.25;;;;;11.41;84.87;101213.47;5077908;28;69588;-64
2023/12/30 06:08:17;;;;;;;;;4.25;2.00;;;;;11.50;84.54;101226.59;5076949;28;55504;-64
2023/12/30 06:10:42;;;;;;;;;3.50;2.25;;;;;11.45;84.57;101223.19;5070838;28;45443;-64
2023/12/30 06:13:08;;;;;;;;;4.50;2.00;;;;;11.46;84.74;101224.91;5074375;28;45584;-64
2023/12/30 06:15:33;;;;;;;;;2.75;2.75;;;;;11.49;84.44;101230.19;5043471;28;48961;-64
2023/12/30 06:17:58;;;;;;;;;4.00;3.50;;;;;11.46;84.48;101232.94;5078773;27;45374;-63
2023/12/30 06:20:24;;;;;;;;;3.50;2.00;;;;;11.41;84.71;101235.75;5078023;28;45546;-64
2023/12/30 06:22:49;;;;;;;;;3.25;3.00;;;;;11.43;84.42;101239.25;5078627;28;45308;-64
2023/12/30 06:25:14;;;;;;;;;5.00;3.00;;;;;11.42;84.85;101248.19;5078060;28;61897;-63
2023/12/30 06:27:40;;;;;;;;;8.25;3.00;;;;;11.41;84.67;101237.53;5078583;28;45394;-64
2023/12/30 06:30:06;;;;;;;;;2.50;2.50;;;;;11.28;85.00;101220.97;5059735;28;59900;-64
2023/12/30 06:32:31;;;;;;;;;3.00;2.75;;;;;11.34;84.99;101230.63;5060250;28;45513;-64
2023/12/30 06:34:56;;;;;;;;;3.75;2.75;;;;;11.32;85.09;101226.19;5078248;28;45892;-63
2023/12/30 06:37:22;;;;;;;;;5.00;1.75;;;;;11.31;84.88;101234.25;5060332;28;45490;-64
2023/12/30 06:39:47;;;;;;;;;4.00;2.00;;;;;11.32;85.16;101233.31;5079453;28;45389;-64
2023/12/30 06:42:12;;;;;;;;;3.00;3.00;;;;;11.35;85.29;101246.59;5080771;28;45596;-64
2023/12/30 06:44:38;;;;;;;;;4.00;4.00;;;;;11.32;85.02;101246.69;5081662;28;45542;-64
2023/12/30 06:47:05;;;;;;;;;6.00;3.75;;;;;11.37;85.30;101243.91;5060721;28;45397;-64
2023/12/30 06:49:30;;;;;;;;;3.00;3.00;;;;;11.40;85.21;101251.84;5080562;28;45653;-64
2023/12/30 06:51:55;;;;;;;;;5.00;3.00;;;;;11.38;85.28;101245.66;5081890;28;52359;-64
2023/12/30 06:54:21;;;;;;;;;3.75;3.75;;;;;11.41;85.42;101248.22;5081634;28;45370;-64
2023/12/30 06:56:47;;;;;;;;;4.50;4.00;;;;;11.17;85.30;101207.03;5080546;28;45614;-64
2023/12/30 06:59:12;;;;;;;;;4.25;2.25;;;;;11.43;85.33;101254.44;5081762;28;45445;-63
2023/12/30 07:01:40;;;;;;;;;2.25;2.00;;;;;11.38;85.14;101243.84;5081750;27;45493;-64
2023/12/30 07:04:05;;;;;;;;;3.75;2.00;;;;;11.37;85.52;101246.56;5062923;28;47254;-64
2023/12/30 07:06:30;;;;;;;;;6.00;2.00;;;;;11.45;85.20;101255.25;5076640;28;56876;-64
2023/12/30 07:08:55;;;;;;;;;2.00;2.00;;;;;11.39;85.36;101239.38;5077946;28;45473;-64
2023/12/30 07:11:21;;;;;;;;;6.00;2.50;;;;;11.39;85.40;101250.94;5080793;28;45544;-64
2023/12/30 07:13:46;;;;;;;;;4.50;3.00;;;;;11.45;85.38;101255.25;5081273;28;46120;-64
2023/12/30 07:16:15;;;;;;;;;3.50;2.00;;;;;11.43;84.90;101255.28;5081637;28;45374;-64
2023/12/30 07:18:40;;;;;;;;;3.00;3.00;;;;;11.39;85.81;101245.59;5081098;28;45459;-64
2023/12/30 07:21:05;;;;;;;;;6.00;3.50;;;;;11.45;85.98;101250.78;5080804;28;45417;-64
2023/12/30 07:23:31;;;;;;;;;5.00;3.00;;;;;11.39;85.50;101242.91;5080058;28;45641;-64
2023/12/30 07:25:56;;;;;;;;;2.00;2.00;;;;;11.49;85.73;101255.13;5080252;28;45363;-64
2023/12/30 07:28:21;;;;;;;;;3.50;2.25;;;;;11.40;85.75;101235.81;5079394;28;45271;-64
2023/12/30 07:30:47;;;;;;;;;2.25;2.00;;;;;11.41;85.48;101246.44;5061910;28;45465;-64
2023/12/30 07:33:12;;;;;;;;;1.50;1.00;;;;;11.41;85.78;101234.84;5062034;28;56722;-65
2023/12/30 07:35:38;;;;;;;;;5.00;1.00;;;;;11.48;85.96;101247.16;5080740;28;45291;-64
2023/12/30 07:38:03;;;;;;;;;3.00;2.00;;;;;11.45;85.77;101250.78;5062510;28;45371;-64
2023/12/30 07:40:29;;;;;;;;;3.50;1.50;;;;;11.46;85.83;101241.84;5080961;27;45480;-64
2023/12/30 07:42:54;;;;;;;;;0.00;0.00;;;;;11.35;85.79;101221.69;5080419;28;45630;-64
2023/12/30 07:45:19;;;;;;;;;2.00;2.00;;;;;11.44;85.99;101232.09;5078058;28;52187;-64
2023/12/30 07:47:45;;;;;;;;;4.00;3.25;;;;;11.48;85.51;101231.97;5079924;28;45403;-64
2023/12/30 07:50:10;;;;;;;;;5.50;2.25;;;;;11.44;85.86;101230.34;5057891;28;45757;-64
2023/12/30 07:52:36;;;;;;;;;2.75;2.00;;;;;11.42;85.59;101218.78;5078512;28;45398;-69
2023/12/30 07:55:01;;;;;;;;;3.50;2.75;;;;;11.50;85.35;101235.47;5079751;28;45431;-69
2023/12/30 07:57:26;;;;;;;;;3.50;3.00;;;;;11.54;85.32;101243.41;5080616;28;45408;-64
2023/12/30 07:59:52;;;;;;;;;1.25;1.25;;;;;11.49;85.39;101236.41;5080839;28;45408;-63
2023/12/30 08:02:19;;;;;;;;;3.00;2.25;;;;;11.49;85.19;101236.41;5080349;27;46572;-63
2023/12/30 08:04:44;;;;;;;;;4.25;2.50;;;;;11.45;84.99;101229.38;5072950;28;45344;-64
2023/12/30 08:07:10;;;;;;;;;3.25;2.00;;;;;11.46;85.35;101235.59;5062553;28;45734;-65
2023/12/30 08:09:37;;;;;;;;;2.75;2.00;;;;;11.44;85.29;101227.66;5080151;28;45277;-64
2023/12/30 08:12:04;;;;;;;;;0.75;0.75;;;;;11.45;85.33;101228.53;5061367;28;48263;-64
2023/12/30 08:14:29;;;;;;;;;1.25;1.25;;;;;11.57;85.05;101238.84;5080601;28;45481;-64
2023/12/30 08:16:55;;;;;;;;;3.25;2.00;;;;;11.55;84.93;101234.50;5077547;27;45428;-64
2023/12/30 08:19:20;;;;;;;;;2.75;1.50;;;;;11.59;85.13;101241.50;5076354;27;45543;-64
2023/12/30 08:21:45;;;;;;;;;2.00;2.00;;;;;11.58;85.16;101237.94;5076597;27;53417;-64
2023/12/30 08:24:14;;;;;;;;;5.25;2.75;;;;;11.59;85.38;101239.69;5079156;28;45454;-64
2023/12/30 08:26:39;;;;;;;;;7.25;4.00;;;;;11.64;85.11;101247.59;5060817;28;45734;-64
2023/12/30 08:29:08;;;;;;;;;5.00;3.50;;;;;11.50;85.32;101224.78;5079266;28;45506;-64
2023/12/30 08:31:34;;;;;;;;;4.00;3.50;;;;;11.66;85.30;101248.41;5077810;28;46136;-64
2023/12/30 08:34:00;;;;;;;;;2.00;2.00;;;;;11.59;85.86;101233.47;5074967;28;45868;-64
2023/12/30 08:36:28;;;;;;;;;3.25;1.25;;;;;11.59;85.96;101226.31;5056842;28;45474;-64
2023/12/30 08:38:53;;;;;;;;;3.75;2.50;;;;;11.62;85.82;101220.00;5071362;28;45524;-64
2023/12/30 08:41:23;;;;;;;;;4.25;4.25;;;;;11.56;86.22;101210.38;5060067;28;48152;-64
2023/12/30 08:43:52;;;;;;;;;3.75;3.75;;;;;11.67;86.42;101223.44;5075433;28;45815;-64
2023/12/30 08:46:17;;;;;;;;;4.25;4.25;;;;;11.68;86.30;101214.50;5054999;28;45423;-64
2023/12/30 08:48:42;;;;;;;;;9.00;5.25;;;;;11.59;86.50;101193.38;5054276;28;45471;-64
2023/12/30 08:51:08;;;;;;;;;2.75;2.75;;;;;11.67;86.83;101205.56;5078394;27;46327;-64
2023/12/30 08:53:33;;;;;;;;;4.25;3.00;;;;;11.69;86.86;101208.22;5060339;28;45450;-64
2023/12/30 08:55:58;;;;;;;;;8.50;5.75;;;;;11.76;86.69;101208.91;5076504;28;48184;-64
2023/12/30 08:58:24;;;;;;;;;4.00;4.00;;;;;11.71;86.98;101203.72;5076618;28;63328;-64
2023/12/30 09:00:49;;;;;;;;;4.00;3.75;;;;;11.71;87.01;101192.13;5057655;27;47387;-64
2023/12/30 09:03:15;;;;;;;;;5.50;4.00;;;;;11.72;87.25;101180.50;5077455;28;45586;-64
2023/12/30 09:05:41;;;;;;;;;3.00;3.00;;;;;11.71;86.95;101173.41;5059404;28;45346;-64
2023/12/30 09:08:06;;;;;;;;;3.00;2.25;;;;;11.80;87.40;101190.03;5078328;28;45454;-64
2023/12/30 09:10:31;;;;;;;;;7.00;4.75;;;;;11.70;87.27;101180.56;5077543;28;45736;-64
2023/12/30 09:12:58;;;;;;;;;1.00;1.00;;;;;11.79;87.52;101195.44;5077406;28;48995;-64
2023/12/30 09:15:23;;;;;;;;;4.25;4.25;;;;;11.55;87.33;101154.28;5077556;28;45470;-64
2023/12/30 09:17:48;;;;;;;;;9.00;7.25;;;;;11.75;87.51;101183.09;5078266;28;45422;-64
2023/12/30 09:20:14;;;;;;;;;3.25;3.25;;;;;11.81;87.66;101191.81;5076970;27;45585;-64
2023/12/30 09:22:39;;;;;;;;;5.00;5.00;;;;;11.78;87.87;101180.34;5077929;27;45450;-64
2023/12/30 09:25:05;;;;;;;;;3.75;3.25;;;;;11.85;87.77;101189.91;5077717;28;56847;-64
2023/12/30 09:27:30;;;;;;;;;3.75;3.00;;;;;11.86;87.59;101192.53;5077447;27;46341;-64
2023/12/30 09:29:56;;;;;;;;;4.00;4.00;;;;;11.88;87.87;101195.19;5074197;28;49281;-64
2023/12/30 09:32:23;;;;;;;;;4.75;4.75;;;;;11.84;87.74;101183.69;5077303;28;64536;-64
2023/12/30 09:34:48;;;;;;;;;5.25;5.25;;;;;11.92;87.86;101198.66;5075647;28;45393;-64
2023/12/30 09:37:14;;;;;;;;;4.50;4.00;;;;;11.90;87.40;101192.47;5077299;28;45409;-64
2023/12/30 09:39:40;;;;;;;;;4.00;4.00;;;;;11.95;88.11;101194.09;5077709;28;46139;-64
2023/12/30 09:42:05;;;;;;;;;4.00;3.00;;;;;12.00;87.72;101196.63;5077813;28;45374;-64
2023/12/30 09:44:32;;;;;;;;;7.75;6.25;;;;;12.02;88.32;101203.66;5077795;28;45509;-64
2023/12/30 09:46:59;;;;;;;;;4.75;4.75;;;;;12.02;87.52;101192.09;5077517;28;45422;-64
2023/12/30 09:49:26;;;;;;;;;5.75;3.00;;;;;12.06;87.90;101199.09;5077313;27;45520;-64
2023/12/30 09:51:51;;;;;;;;;7.50;6.25;;;;;12.06;88.06;101188.38;5077298;28;45537;-64
2023/12/30 09:54:16;;;;;;;;;4.50;3.25;;;;;12.08;87.95;101194.59;5076893;28;45470;-64
2023/12/30 09:56:42;;;;;;;;;3.75;3.75;;;;;12.03;88.16;101170.66;5076777;28;46596;-64
2023/12/30 09:59:07;;;;;;;;;5.25;4.75;;;;;12.15;88.19;101189.91;5073467;28;46104;-64
2023/12/30 10:01:34;;;;;;;;;3.50;3.50;;;;;12.13;88.12;101186.41;5077382;28;45497;-64
2023/12/30 10:03:59;;;;;;;;;6.25;4.75;;;;;12.11;88.22;101181.13;5076809;28;45384;-64
2023/12/30 10:06:25;;;;;;;;;4.00;4.00;;;;;12.21;88.22;101195.97;5077120;28;45570;-64
2023/12/30 10:08:51;;;;;;;;;6.50;5.00;;;;;12.19;88.44;101192.44;5076051;28;46120;-64
2023/12/30 10:11:17;;;;;;;;;4.75;4.00;;;;;12.15;88.26;101188.13;5075683;28;45427;-64
2023/12/30 10:13:42;;;;;;;;;4.00;3.25;;;;;12.10;88.33;101168.66;5059610;28;45333;-63
2023/12/30 10:16:08;;;;;;;;;5.25;5.25;;;;;12.16;88.77;101167.56;5081612;27;45352;-64
2023/12/30 10:18:36;;;;;;;;;6.25;4.75;;;;;12.28;88.36;101179.69;5080122;28;46516;-63
2023/12/30 10:21:03;;;;;;;;;1.00;1.00;;;;;12.32;88.23;101184.03;5075783;27;45402;-64
2023/12/30 10:23:31;;;;;;;;;7.75;4.75;;;;;12.33;88.10;101175.94;5061682;28;45416;-64
2023/12/30 10:25:56;;;;;;;;;5.50;5.50;;;;;12.24;88.14;101162.84;5080550;28;45783;-64
2023/12/30 10:28:22;;;;;;;;;4.75;4.00;;;;;12.38;87.94;101173.13;5079735;28;46335;-64
2023/12/30 10:30:48;;;;;;;;;4.00;2.00;;;;;12.30;88.33;101159.13;5059346;28;45366;-64
2023/12/30 10:33:14;;;;;;;;;5.00;4.25;;;;;12.29;88.65;101171.59;5080497;28;45399;-64
2023/12/30 10:35:41;;;;;;;;;3.50;3.50;;;;;12.29;88.66;101165.38;5080330;28;45767;-64
2023/12/30 10:38:12;;;;;;;;;4.00;4.00;;;;;12.33;88.75;101162.56;5080351;28;45679;-64
2023/12/30 10:40:38;;;;;;;;;5.00;4.00;;;;;12.33;89.02;101162.56;5082711;27;45854;-64
2023/12/30 10:43:04;;;;;;;;;5.00;4.00;;;;;12.29;89.05;101144.84;5074582;28;45344;-64
2023/12/30 10:45:30;;;;;;;;;7.25;6.00;;;;;12.26;89.04;101133.34;5058870;28;45537;-64
2023/12/30 10:47:58;;;;;;;;;4.00;4.00;;;;;12.20;88.95;101105.88;5062108;28;47085;-64
2023/12/30 10:50:31;;;;;;;;;4.00;4.00;;;;;12.29;89.34;101109.16;5080230;28;45470;-63
2023/12/30 10:53:08;;;;;;;;;9.25;9.25;;;;;12.30;89.48;101097.53;5080466;28;45487;-64
2023/12/30 10:55:35;;;;;;;;;8.75;7.00;;;;;12.48;89.05;101115.66;5070645;28;45437;-64
2023/12/30 10:58:11;;;;;;;;;4.75;4.75;;;;;12.18;89.02;101072.06;5058691;28;46382;-64
2023/12/30 11:00:37;;;;;;;;;4.00;4.00;;;;;12.53;89.55;101119.06;5073940;28;45694;-63
2023/12/30 11:03:04;;;;;;;;;4.00;4.00;;;;;12.33;89.17;101087.59;5080971;27;45335;-64
2023/12/30 11:05:38;;;;;;;;;4.00;2.75;;;;;12.50;88.97;101099.53;5051531;28;45546;-64
2023/12/30 11:08:05;;;;;;;;;4.00;4.00;;;;;12.36;88.97;101065.19;5078614;28;46014;-64
2023/12/30 11:10:33;;;;;;;;;6.00;4.00;;;;;12.47;89.01;101084.44;5082613;27;45563;-64
2023/12/30 11:12:59;;;;;;;;;4.00;4.00;;;;;12.27;89.07;101036.09;5076670;27;45632;-64
2023/12/30 11:15:29;;;;;;;;;2.25;2.25;;;;;12.46;89.28;101063.06;5062018;28;45501;-64
2023/12/30 11:17:58;;;;;;;;;6.75;4.25;;;;;12.33;89.11;101046.56;5079107;28;46475;-64